Time,TemperatureF,DewpointF,PressureIn,WindDirection,WindDirectionDegrees,WindSpeedMPH,WindSpeedGustMPH,Humidity,HourlyPrecipIn,Conditions,Clouds,dailyrainin,SolarRadiationWatts/m^2,SoftwareType,DateUTC
2013-05-31 00:02:00,76.0,72.0,-100.00,ENE,72,6.0,-999.0,87,0.00,,,-99.99,0.000000,,2013-05-31 04:02:00,
2013-05-31 00:12:00,76.0,72.0,-100.00,ENE,72,6.0,-999.0,87,0.00,,,-99.99,0.000000,,2013-05-31 04:12:00,
2013-05-31 00:23:00,75.0,72.0,-100.00,ENE,71,6.0,-999.0,88,0.00,,,-99.99,0.000000,,2013-05-31 04:23:00,
2013-05-31 00:33:00,75.0,72.0,-100.00,ENE,72,6.0,-999.0,89,0.00,,,-99.99,0.000000,,2013-05-31 04:33:00,
2013-05-31 00:42:00,75.0,72.0,-100.00,ENE,69,6.0,-999.0,90,0.00,,,-99.99,0.000000,,2013-05-31 04:42:00,
2013-05-31 00:53:00,75.0,72.0,-100.00,ENE,69,6.0,-999.0,90,0.00,,,-99.99,0.000000,,2013-05-31 04:53:00,
2013-05-31 01:02:00,75.0,72.0,-100.00,ENE,69,6.0,-999.0,90,0.00,,,-99.99,0.000000,,2013-05-31 05:02:00,
2013-05-31 01:12:00,75.0,72.0,-100.00,ENE,70,6.0,-999.0,90,0.00,,,-99.99,0.000000,,2013-05-31 05:12:00,
2013-05-31 01:22:00,75.0,72.0,-100.00,ENE,70,6.0,-999.0,90,0.00,,,-99.99,0.000000,,2013-05-31 05:22:00,
2013-05-31 01:32:00,74.0,72.0,-100.00,ENE,70,6.0,-999.0,90,0.00,,,-99.99,0.000000,,2013-05-31 05:32:00,
2013-05-31 01:42:00,74.0,72.0,-100.00,ENE,71,8.0,-999.0,91,0.00,,,-99.99,0.000000,,2013-05-31 05:42:00,
2013-05-31 01:52:00,74.0,72.0,-100.00,ENE,71,8.0,-999.0,91,0.00,,,-99.99,0.000000,,2013-05-31 05:52:00,
2013-05-31 02:02:00,74.0,71.0,-100.00,ENE,73,8.0,-999.0,91,0.00,,,-99.99,0.000000,,2013-05-31 06:02:00,
2013-05-31 02:12:00,74.0,71.0,-100.00,ENE,72,7.0,-999.0,90,0.00,,,-99.99,0.000000,,2013-05-31 06:12:00,
2013-05-31 02:22:00,74.0,71.0,-100.00,ENE,72,7.0,-999.0,90,0.00,,,-99.99,0.000000,,2013-05-31 06:22:00,
2013-05-31 02:32:00,74.0,71.0,-100.00,ENE,72,8.0,-999.0,90,0.00,,,-99.99,0.000000,,2013-05-31 06:32:00,
2013-05-31 02:41:00,74.0,71.0,-100.00,ENE,73,8.0,-999.0,90,0.00,,,-99.99,0.000000,,2013-05-31 06:41:00,
2013-05-31 02:52:00,74.0,71.0,-100.00,ENE,73,8.0,-999.0,90,0.00,,,-99.99,0.000000,,2013-05-31 06:52:00,
2013-05-31 03:02:00,73.0,71.0,-100.00,ENE,72,7.0,-999.0,90,0.00,,,-99.99,0.000000,,2013-05-31 07:02:00,
2013-05-31 03:11:00,73.0,70.0,-100.00,ENE,70,6.0,-999.0,90,0.00,,,-99.99,0.000000,,2013-05-31 07:11:00,
2013-05-31 03:21:00,73.0,70.0,-100.00,ENE,70,6.0,-999.0,90,0.00,,,-99.99,0.000000,,2013-05-31 07:21:00,
2013-05-31 03:32:00,73.0,70.0,-100.00,ENE,71,6.0,-999.0,90,0.00,,,-99.99,0.000000,,2013-05-31 07:32:00,
2013-05-31 03:41:00,73.0,70.0,-100.00,ENE,70,5.0,-999.0,91,0.00,,,-99.99,0.000000,,2013-05-31 07:41:00,
2013-05-31 03:53:00,73.0,70.0,-100.00,ENE,70,5.0,-999.0,91,0.00,,,-99.99,0.000000,,2013-05-31 07:53:00,
2013-05-31 04:02:00,73.0,70.0,-100.00,ENE,69,3.0,-999.0,91,0.00,,,-99.99,0.000000,,2013-05-31 08:02:00,
2013-05-31 04:11:00,72.0,70.0,-100.00,ENE,65,4.0,-999.0,92,0.00,,,-99.99,0.000000,,2013-05-31 08:11:00,
2013-05-31 04:22:00,72.0,70.0,-100.00,ENE,65,4.0,-999.0,92,0.00,,,-99.99,0.000000,,2013-05-31 08:22:00,
2013-05-31 04:32:00,72.0,70.0,-100.00,ENE,65,3.0,-999.0,92,0.00,,,-99.99,0.000000,,2013-05-31 08:32:00,
2013-05-31 04:42:00,72.0,70.0,-100.00,ENE,66,4.0,-999.0,93,0.00,,,-99.99,0.000000,,2013-05-31 08:42:00,
2013-05-31 04:52:00,72.0,70.0,-100.00,ENE,66,4.0,-999.0,93,0.00,,,-99.99,0.000000,,2013-05-31 08:52:00,
2013-05-31 05:01:00,72.0,70.0,-100.00,ENE,71,5.0,-999.0,92,0.00,,,-99.99,0.000000,,2013-05-31 09:01:00,
2013-05-31 05:11:00,72.0,70.0,-100.00,ENE,69,7.0,-999.0,92,0.00,,,-99.99,0.000000,,2013-05-31 09:11:00,
2013-05-31 05:21:00,72.0,70.0,-100.00,ENE,69,7.0,-999.0,92,0.00,,,-99.99,0.000000,,2013-05-31 09:21:00,
2013-05-31 05:32:00,72.0,70.0,-100.00,ENE,72,7.0,-999.0,91,0.00,,,-99.99,0.000000,,2013-05-31 09:32:00,
2013-05-31 05:43:00,72.0,70.0,-100.00,ENE,72,7.0,-999.0,91,0.00,,,-99.99,0.000000,,2013-05-31 09:43:00,
2013-05-31 05:53:00,72.0,70.0,-100.00,ENE,72,7.0,-999.0,91,0.00,,,-99.99,0.000000,,2013-05-31 09:53:00,
2013-05-31 06:02:00,72.0,70.0,-100.00,ENE,70,7.0,-999.0,92,0.00,,,-99.99,0.000000,,2013-05-31 10:02:00,
2013-05-31 06:12:00,72.0,70.0,-100.00,ENE,70,7.0,-999.0,92,0.00,,,-99.99,0.000000,,2013-05-31 10:12:00,
2013-05-31 06:23:00,72.0,70.0,-100.00,ENE,72,7.0,-999.0,92,0.00,,,-99.99,0.000000,,2013-05-31 10:23:00,
2013-05-31 06:33:00,72.0,70.0,-100.00,ENE,72,7.0,-999.0,92,0.00,,,-99.99,0.000000,,2013-05-31 10:33:00,
2013-05-31 06:42:00,72.0,70.0,-100.00,ENE,71,6.0,-999.0,92,0.00,,,-99.99,1.700000,,2013-05-31 10:42:00,
2013-05-31 06:52:00,72.0,70.0,-100.00,ENE,71,6.0,-999.0,92,0.00,,,-99.99,1.700000,,2013-05-31 10:52:00,
2013-05-31 07:02:00,72.0,70.0,-100.00,ENE,67,5.0,-999.0,93,0.00,,,-99.99,7.800000,,2013-05-31 11:02:00,
2013-05-31 07:12:00,72.0,70.0,-100.00,ENE,66,6.0,-999.0,93,0.00,,,-99.99,32.500000,,2013-05-31 11:12:00,
2013-05-31 07:22:00,72.0,70.0,-100.00,ENE,66,6.0,-999.0,93,0.00,,,-99.99,32.500000,,2013-05-31 11:22:00,
2013-05-31 07:32:00,73.0,71.0,-100.00,ENE,68,7.0,-999.0,93,0.00,,,-99.99,77.400002,,2013-05-31 11:32:00,
2013-05-31 07:42:00,73.0,71.0,-100.00,ENE,73,7.0,-999.0,92,0.00,,,-99.99,127.900002,,2013-05-31 11:42:00,
2013-05-31 07:52:00,73.0,71.0,-100.00,ENE,73,7.0,-999.0,92,0.00,,,-99.99,127.900002,,2013-05-31 11:52:00,
2013-05-31 08:01:00,74.0,71.0,-100.00,ENE,70,9.0,-999.0,91,0.00,,,-99.99,180.600006,,2013-05-31 12:01:00,
2013-05-31 08:11:00,74.0,71.0,-100.00,ENE,70,9.0,-999.0,91,0.00,,,-99.99,180.600006,,2013-05-31 12:11:00,
2013-05-31 08:22:00,74.0,71.0,-100.00,ENE,70,9.0,-999.0,91,0.00,,,-99.99,180.600006,,2013-05-31 12:22:00,
2013-05-31 08:31:00,76.0,72.0,-100.00,ENE,71,8.0,-999.0,87,0.00,,,-99.99,294.799988,,2013-05-31 12:31:00,
2013-05-31 08:42:00,77.0,72.0,-100.00,ENE,76,8.0,-999.0,85,0.00,,,-99.99,351.100006,,2013-05-31 12:42:00,
2013-05-31 08:52:00,77.0,72.0,-100.00,ENE,76,8.0,-999.0,85,0.00,,,-99.99,351.100006,,2013-05-31 12:52:00,
2013-05-31 09:01:00,79.0,73.0,-100.00,East,81,8.0,-999.0,83,0.00,,,-99.99,403.899994,,2013-05-31 13:01:00,
2013-05-31 09:11:00,79.0,73.0,-100.00,East,84,11.0,-999.0,81,0.00,,,-99.99,352.600006,,2013-05-31 13:11:00,
2013-05-31 09:21:00,79.0,73.0,-100.00,East,84,11.0,-999.0,81,0.00,,,-99.99,352.600006,,2013-05-31 13:21:00,
2013-05-31 09:32:00,80.0,73.0,-100.00,East,84,11.0,-999.0,78,0.00,,,-99.99,502.299988,,2013-05-31 13:32:00,
2013-05-31 09:42:00,80.0,72.0,-100.00,East,84,11.0,-999.0,77,0.00,,,-99.99,357.200012,,2013-05-31 13:42:00,
2013-05-31 09:52:00,80.0,72.0,-100.00,East,84,11.0,-999.0,77,0.00,,,-99.99,357.200012,,2013-05-31 13:52:00,
2013-05-31 10:02:00,80.0,72.0,-100.00,East,84,11.0,-999.0,77,0.00,,,-99.99,357.200012,,2013-05-31 14:02:00,
2013-05-31 10:11:00,80.0,72.0,-100.00,East,83,11.0,-999.0,77,0.00,,,-99.99,445.200012,,2013-05-31 14:11:00,
2013-05-31 10:21:00,81.0,73.0,-100.00,East,85,10.0,-999.0,75,0.00,,,-99.99,538.799988,,2013-05-31 14:21:00,
2013-05-31 10:32:00,81.0,73.0,-100.00,East,83,10.0,-999.0,75,0.00,,,-99.99,557.200012,,2013-05-31 14:32:00,
2013-05-31 10:42:00,82.0,72.0,-100.00,East,85,12.0,-999.0,73,0.00,,,-99.99,466.200012,,2013-05-31 14:42:00,
2013-05-31 10:52:00,82.0,72.0,-100.00,East,85,12.0,-999.0,73,0.00,,,-99.99,466.200012,,2013-05-31 14:52:00,
2013-05-31 11:01:00,82.0,72.0,-100.00,East,81,11.0,-999.0,73,0.00,,,-99.99,594.700012,,2013-05-31 15:01:00,
2013-05-31 11:11:00,82.0,73.0,-100.00,East,80,9.0,-999.0,72,0.00,,,-99.99,767.000000,,2013-05-31 15:11:00,
2013-05-31 11:21:00,82.0,73.0,-100.00,East,80,9.0,-999.0,72,0.00,,,-99.99,767.000000,,2013-05-31 15:21:00,
2013-05-31 11:33:00,82.0,73.0,-100.00,ENE,67,7.0,-999.0,74,0.00,,,-99.99,607.700012,,2013-05-31 15:33:00,
2013-05-31 11:43:00,82.0,73.0,-100.00,East,83,8.0,-999.0,74,0.00,,,-99.99,329.500000,,2013-05-31 15:43:00,
2013-05-31 11:53:00,82.0,73.0,-100.00,East,83,8.0,-999.0,74,0.00,,,-99.99,329.500000,,2013-05-31 15:53:00,
2013-05-31 12:03:00,84.0,73.0,-100.00,East,96,8.0,-999.0,69,0.00,,,-99.99,752.000000,,2013-05-31 16:03:00,
2013-05-31 12:12:00,85.0,73.0,-100.00,East,87,8.0,-999.0,66,0.00,,,-99.99,731.000000,,2013-05-31 16:12:00,
2013-05-31 12:22:00,85.0,73.0,-100.00,East,87,8.0,-999.0,66,0.00,,,-99.99,731.000000,,2013-05-31 16:22:00,
2013-05-31 12:33:00,85.0,72.0,-100.00,East,92,10.0,-999.0,65,0.00,,,-99.99,600.500000,,2013-05-31 16:33:00,
2013-05-31 12:42:00,83.0,73.0,-100.00,East,82,10.0,-999.0,71,0.00,,,-99.99,422.299988,,2013-05-31 16:42:00,
2013-05-31 12:52:00,83.0,73.0,-100.00,East,82,10.0,-999.0,71,0.00,,,-99.99,422.299988,,2013-05-31 16:52:00,
2013-05-31 13:02:00,84.0,73.0,-100.00,East,93,8.0,-999.0,70,0.00,,,-99.99,554.599976,,2013-05-31 17:02:00,
2013-05-31 13:12:00,84.0,73.0,-100.00,East,88,9.0,-999.0,69,0.00,,,-99.99,589.200012,,2013-05-31 17:12:00,
2013-05-31 13:22:00,84.0,73.0,-100.00,East,88,9.0,-999.0,69,0.00,,,-99.99,589.200012,,2013-05-31 17:22:00,
2013-05-31 13:32:00,84.0,73.0,-100.00,ENE,72,9.0,-999.0,70,0.00,,,-99.99,358.100006,,2013-05-31 17:32:00,
2013-05-31 13:42:00,84.0,74.0,-100.00,ENE,68,10.0,-999.0,71,0.00,,,-99.99,938.000000,,2013-05-31 17:42:00,
2013-05-31 13:52:00,84.0,74.0,-100.00,ENE,68,10.0,-999.0,71,0.00,,,-99.99,938.000000,,2013-05-31 17:52:00,
2013-05-31 14:02:00,84.0,74.0,-100.00,ENE,61,8.0,-999.0,72,0.00,,,-99.99,441.600006,,2013-05-31 18:02:00,
2013-05-31 14:12:00,84.0,74.0,-100.00,ENE,66,10.0,-999.0,71,0.00,,,-99.99,837.000000,,2013-05-31 18:12:00,
2013-05-31 14:22:00,84.0,74.0,-100.00,ENE,66,10.0,-999.0,71,0.00,,,-99.99,837.000000,,2013-05-31 18:22:00,
2013-05-31 14:32:00,85.0,74.0,-100.00,ENE,67,10.0,-999.0,68,0.00,,,-99.99,815.000000,,2013-05-31 18:32:00,
2013-05-31 14:42:00,84.0,73.0,-100.00,ENE,68,11.0,-999.0,69,0.00,,,-99.99,512.799988,,2013-05-31 18:42:00,
2013-05-31 14:52:00,84.0,73.0,-100.00,ENE,68,11.0,-999.0,69,0.00,,,-99.99,512.799988,,2013-05-31 18:52:00,
2013-05-31 15:02:00,80.0,73.0,-100.00,East,84,11.0,-999.0,79,0.03,,,-99.99,257.399994,,2013-05-31 19:02:00,
2013-05-31 15:11:00,80.0,73.0,-100.00,East,84,11.0,-999.0,79,0.03,,,-99.99,257.399994,,2013-05-31 19:11:00,
2013-05-31 15:22:00,78.0,74.0,-100.00,East,86,11.0,-999.0,88,0.00,,,-99.99,525.599976,,2013-05-31 19:22:00,
2013-05-31 15:32:00,78.0,75.0,-100.00,East,80,11.0,-999.0,88,0.00,,,-99.99,509.600006,,2013-05-31 19:32:00,
2013-05-31 15:42:00,79.0,75.0,-100.00,ENE,76,8.0,-999.0,89,0.00,,,-99.99,482.799988,,2013-05-31 19:42:00,
2013-05-31 15:52:00,79.0,75.0,-100.00,ENE,76,8.0,-999.0,89,0.00,,,-99.99,482.799988,,2013-05-31 19:52:00,
2013-05-31 16:02:00,79.0,75.0,-100.00,ENE,73,8.0,-999.0,85,0.00,,,-99.99,441.899994,,2013-05-31 20:02:00,
2013-05-31 16:11:00,79.0,75.0,-100.00,ENE,73,8.0,-999.0,85,0.00,,,-99.99,441.899994,,2013-05-31 20:11:00,
2013-05-31 16:22:00,82.0,76.0,-100.00,East,80,8.0,-999.0,80,0.00,,,-99.99,851.000000,,2013-05-31 20:22:00,
2013-05-31 16:32:00,82.0,75.0,-100.00,East,81,10.0,-999.0,78,0.00,,,-99.99,421.299988,,2013-05-31 20:32:00,
2013-05-31 16:42:00,81.0,73.0,-100.00,ENE,70,9.0,-999.0,78,0.00,,,-99.99,240.399994,,2013-05-31 20:42:00,
2013-05-31 16:52:00,81.0,73.0,-100.00,ENE,70,9.0,-999.0,78,0.00,,,-99.99,240.399994,,2013-05-31 20:52:00,
2013-05-31 17:01:00,80.0,73.0,-100.00,ENE,70,8.0,-999.0,78,0.00,,,-99.99,307.600006,,2013-05-31 21:01:00,
2013-05-31 17:11:00,81.0,73.0,-100.00,ENE,64,7.0,-999.0,77,0.00,,,-99.99,327.100006,,2013-05-31 21:11:00,
2013-05-31 17:22:00,81.0,73.0,-100.00,ENE,64,7.0,-999.0,77,0.00,,,-99.99,327.100006,,2013-05-31 21:22:00,
2013-05-31 17:32:00,81.0,73.0,-100.00,ENE,64,7.0,-999.0,77,0.00,,,-99.99,327.100006,,2013-05-31 21:32:00,
2013-05-31 17:43:00,83.0,74.0,-100.00,ENE,71,8.0,-999.0,75,0.00,,,-99.99,535.700012,,2013-05-31 21:43:00,
2013-05-31 17:54:00,83.0,74.0,-100.00,ENE,74,8.0,-999.0,74,0.00,,,-99.99,326.500000,,2013-05-31 21:54:00,
2013-05-31 18:02:00,84.0,73.0,-100.00,East,83,10.0,-999.0,69,0.00,,,-99.99,486.500000,,2013-05-31 22:02:00,
2013-05-31 18:12:00,85.0,73.0,-100.00,East,84,8.0,-999.0,66,0.00,,,-99.99,456.399994,,2013-05-31 22:12:00,
2013-05-31 18:22:00,85.0,73.0,-100.00,East,84,8.0,-999.0,66,0.00,,,-99.99,456.399994,,2013-05-31 22:22:00,
2013-05-31 18:33:00,83.0,72.0,-100.00,ENE,72,11.0,-999.0,68,0.00,,,-99.99,242.899994,,2013-05-31 22:33:00,
2013-05-31 18:42:00,83.0,72.0,-100.00,ENE,74,11.0,-999.0,68,0.00,,,-99.99,87.900002,,2013-05-31 22:42:00,
2013-05-31 18:53:00,83.0,72.0,-100.00,ENE,74,11.0,-999.0,68,0.00,,,-99.99,87.900002,,2013-05-31 22:53:00,
2013-05-31 19:02:00,83.0,72.0,-100.00,ENE,76,9.0,-999.0,68,0.00,,,-99.99,74.099998,,2013-05-31 23:02:00,
2013-05-31 19:12:00,83.0,72.0,-100.00,East,82,11.0,-999.0,68,0.00,,,-99.99,68.199997,,2013-05-31 23:12:00,
2013-05-31 19:21:00,83.0,72.0,-100.00,East,82,11.0,-999.0,68,0.00,,,-99.99,68.199997,,2013-05-31 23:21:00,
2013-05-31 19:32:00,83.0,72.0,-100.00,East,82,11.0,-999.0,68,0.00,,,-99.99,68.199997,,2013-05-31 23:32:00,
2013-05-31 19:42:00,82.0,71.0,-100.00,ENE,73,10.0,-999.0,69,0.00,,,-99.99,23.299999,,2013-05-31 23:42:00,
2013-05-31 19:52:00,82.0,71.0,-100.00,ENE,73,10.0,-999.0,69,0.00,,,-99.99,23.299999,,2013-05-31 23:52:00,
2013-05-31 20:01:00,81.0,70.0,-100.00,East,80,10.0,-999.0,69,0.00,,,-99.99,19.000000,,2013-06-01 00:01:00,
2013-05-31 20:12:00,81.0,71.0,-100.00,ENE,78,9.0,-999.0,71,0.00,,,-99.99,14.800000,,2013-06-01 00:12:00,
2013-05-31 20:22:00,81.0,71.0,-100.00,ENE,78,9.0,-999.0,71,0.00,,,-99.99,14.800000,,2013-06-01 00:22:00,
2013-05-31 20:32:00,81.0,71.0,-100.00,ENE,78,9.0,-999.0,71,0.00,,,-99.99,14.800000,,2013-06-01 00:32:00,
2013-05-31 20:42:00,80.0,71.0,-100.00,ENE,76,8.0,-999.0,74,0.00,,,-99.99,2.800000,,2013-06-01 00:42:00,
2013-05-31 20:52:00,80.0,71.0,-100.00,ENE,76,8.0,-999.0,74,0.00,,,-99.99,2.800000,,2013-06-01 00:52:00,
2013-05-31 21:01:00,79.0,71.0,-100.00,ENE,75,7.0,-999.0,75,0.00,,,-99.99,0.300000,,2013-06-01 01:01:00,
2013-05-31 21:11:00,79.0,71.0,-100.00,ENE,71,8.0,-999.0,77,0.00,,,-99.99,0.000000,,2013-06-01 01:11:00,
2013-05-31 21:22:00,79.0,71.0,-100.00,ENE,71,8.0,-999.0,77,0.00,,,-99.99,0.000000,,2013-06-01 01:22:00,
2013-05-31 21:32:00,78.0,71.0,-100.00,ENE,74,8.0,-999.0,78,0.00,,,-99.99,0.000000,,2013-06-01 01:32:00,
2013-05-31 21:42:00,78.0,71.0,-100.00,ENE,74,8.0,-999.0,79,0.00,,,-99.99,0.000000,,2013-06-01 01:42:00,
2013-05-31 21:52:00,78.0,71.0,-100.00,ENE,74,8.0,-999.0,79,0.00,,,-99.99,0.000000,,2013-06-01 01:52:00,
2013-05-31 22:01:00,77.0,71.0,-100.00,ENE,75,7.0,-999.0,80,0.00,,,-99.99,0.000000,,2013-06-01 02:01:00,
2013-05-31 22:11:00,77.0,71.0,-100.00,ENE,75,6.0,-999.0,80,0.00,,,-99.99,0.000000,,2013-06-01 02:11:00,
2013-05-31 22:21:00,77.0,71.0,-100.00,ENE,75,6.0,-999.0,80,0.00,,,-99.99,0.000000,,2013-06-01 02:21:00,
2013-05-31 22:32:00,77.0,71.0,-100.00,East,79,6.0,-999.0,81,0.00,,,-99.99,0.000000,,2013-06-01 02:32:00,
2013-05-31 22:42:00,76.0,71.0,-100.00,ENE,74,6.0,-999.0,82,0.00,,,-99.99,0.000000,,2013-06-01 02:42:00,
2013-05-31 22:52:00,76.0,71.0,-100.00,ENE,74,6.0,-999.0,82,0.00,,,-99.99,0.000000,,2013-06-01 02:52:00,
2013-05-31 23:02:00,76.0,71.0,-100.00,ENE,73,6.0,-999.0,83,0.00,,,-99.99,0.000000,,2013-06-01 03:02:00,
2013-05-31 23:11:00,76.0,71.0,-100.00,ENE,70,7.0,-999.0,84,0.00,,,-99.99,0.000000,,2013-06-01 03:11:00,
2013-05-31 23:21:00,76.0,71.0,-100.00,ENE,70,7.0,-999.0,84,0.00,,,-99.99,0.000000,,2013-06-01 03:21:00,
2013-05-31 23:33:00,76.0,71.0,-100.00,ENE,71,7.0,-999.0,85,0.00,,,-99.99,0.000000,,2013-06-01 03:33:00,
2013-05-31 23:43:00,76.0,71.0,-100.00,ENE,71,7.0,-999.0,85,0.00,,,-99.99,0.000000,,2013-06-01 03:43:00,
2013-05-31 23:53:00,75.0,71.0,-100.00,ENE,73,6.0,-999.0,86,0.00,,,-99.99,0.000000,,2013-06-01 03:53:00,